sensor_id;sensor_type;location;lat;lon;timestamp;P1;durP1;ratioP1;P2;durP2;ratioP2
32399;SDS011;45045;45.440;9.178;2022-10-20T00:00:59;48.30;;;31.88;;
32399;SDS011;45045;45.440;9.178;2022-10-20T00:03:25;48.20;;;31.30;;
32399;SDS011;45045;45.440;9.178;2022-10-20T00:05:52;46.88;;;31.20;;
32399;SDS011;45045;45.440;9.178;2022-10-20T00:08:18;48.63;;;32.50;;
32399;SDS011;45045;45.440;9.178;2022-10-20T00:10:54;48.17;;;32.20;;
32399;SDS011;45045;45.440;9.178;2022-10-20T00:13:20;42.60;;;31.27;;
32399;SDS011;45045;45.440;9.178;2022-10-20T00:15:49;50.20;;;31.35;;
32399;SDS011;45045;45.440;9.178;2022-10-20T00:18:15;45.88;;;32.33;;
32399;SDS011;45045;45.440;9.178;2022-10-20T00:20:41;58.10;;;41.00;;
32399;SDS011;45045;45.440;9.178;2022-10-20T00:23:07;63.20;;;44.53;;
32399;SDS011;45045;45.440;9.178;2022-10-20T00:25:32;60.88;;;41.90;;
32399;SDS011;45045;45.440;9.178;2022-10-20T00:27:58;48.97;;;33.13;;
32399;SDS011;45045;45.440;9.178;2022-10-20T00:30:23;43.63;;;31.75;;
32399;SDS011;45045;45.440;9.178;2022-10-20T00:32:49;46.45;;;32.67;;
32399;SDS011;45045;45.440;9.178;2022-10-20T00:35:14;50.35;;;32.55;;
32399;SDS011;45045;45.440;9.178;2022-10-20T00:37:40;45.30;;;31.25;;
32399;SDS011;45045;45.440;9.178;2022-10-20T00:40:06;52.33;;;32.25;;
32399;SDS011;45045;45.440;9.178;2022-10-20T00:42:32;46.30;;;31.75;;
32399;SDS011;45045;45.440;9.178;2022-10-20T00:44:58;43.90;;;30.95;;
32399;SDS011;45045;45.440;9.178;2022-10-20T00:47:30;45.92;;;32.25;;
32399;SDS011;45045;45.440;9.178;2022-10-20T00:52:34;43.72;;;30.70;;
32399;SDS011;45045;45.440;9.178;2022-10-20T00:55:02;43.30;;;30.98;;
32399;SDS011;45045;45.440;9.178;2022-10-20T00:57:28;43.35;;;31.08;;
32399;SDS011;45045;45.440;9.178;2022-10-20T00:59:55;45.75;;;30.08;;
32399;SDS011;45045;45.440;9.178;2022-10-20T01:02:21;46.10;;;29.35;;
32399;SDS011;45045;45.440;9.178;2022-10-20T01:04:47;46.53;;;30.42;;
32399;SDS011;45045;45.440;9.178;2022-10-20T01:07:13;47.30;;;30.90;;
32399;SDS011;45045;45.440;9.178;2022-10-20T01:09:39;46.50;;;31.33;;
32399;SDS011;45045;45.440;9.178;2022-10-20T01:12:07;42.30;;;30.35;;
32399;SDS011;45045;45.440;9.178;2022-10-20T01:14:40;38.90;;;29.48;;
32399;SDS011;45045;45.440;9.178;2022-10-20T01:20:28;41.38;;;29.08;;
32399;SDS011;45045;45.440;9.178;2022-10-20T01:28:54;42.05;;;29.33;;
32399;SDS011;45045;45.440;9.178;2022-10-20T01:34:10;43.15;;;28.33;;
32399;SDS011;45045;45.440;9.178;2022-10-20T01:36:37;44.95;;;28.65;;
32399;SDS011;45045;45.440;9.178;2022-10-20T01:39:14;42.90;;;28.20;;
32399;SDS011;45045;45.440;9.178;2022-10-20T01:42:02;41.05;;;28.40;;
32399;SDS011;45045;45.440;9.178;2022-10-20T01:44:32;39.20;;;27.42;;
32399;SDS011;45045;45.440;9.178;2022-10-20T01:47:00;40.20;;;27.00;;
32399;SDS011;45045;45.440;9.178;2022-10-20T01:49:26;37.30;;;27.80;;
32399;SDS011;45045;45.440;9.178;2022-10-20T01:51:52;41.15;;;27.75;;
32399;SDS011;45045;45.440;9.178;2022-10-20T01:54:22;43.63;;;28.35;;
32399;SDS011;45045;45.440;9.178;2022-10-20T01:59:20;42.90;;;29.00;;
32399;SDS011;45045;45.440;9.178;2022-10-20T02:07:50;41.85;;;28.33;;
32399;SDS011;45045;45.440;9.178;2022-10-20T02:10:31;53.25;;;33.88;;
32399;SDS011;45045;45.440;9.178;2022-10-20T02:13:03;48.17;;;32.20;;
32399;SDS011;45045;45.440;9.178;2022-10-20T02:15:31;49.75;;;36.75;;
32399;SDS011;45045;45.440;9.178;2022-10-20T02:18:02;52.22;;;35.92;;
32399;SDS011;45045;45.440;9.178;2022-10-20T02:20:31;41.15;;;28.48;;
32399;SDS011;45045;45.440;9.178;2022-10-20T02:22:57;45.50;;;30.08;;
32399;SDS011;45045;45.440;9.178;2022-10-20T02:25:24;41.15;;;28.23;;
32399;SDS011;45045;45.440;9.178;2022-10-20T02:27:52;43.40;;;29.98;;
32399;SDS011;45045;45.440;9.178;2022-10-20T02:30:19;41.10;;;29.17;;
32399;SDS011;45045;45.440;9.178;2022-10-20T02:32:46;42.90;;;29.33;;
32399;SDS011;45045;45.440;9.178;2022-10-20T02:35:17;43.42;;;30.00;;
32399;SDS011;45045;45.440;9.178;2022-10-20T02:37:47;46.83;;;28.90;;
32399;SDS011;45045;45.440;9.178;2022-10-20T02:40:12;39.47;;;28.92;;
32399;SDS011;45045;45.440;9.178;2022-10-20T02:42:39;40.85;;;28.55;;
32399;SDS011;45045;45.440;9.178;2022-10-20T02:45:07;46.60;;;29.13;;
32399;SDS011;45045;45.440;9.178;2022-10-20T02:47:33;41.60;;;28.77;;
32399;SDS011;45045;45.440;9.178;2022-10-20T02:49:59;39.03;;;28.17;;
32399;SDS011;45045;45.440;9.178;2022-10-20T02:52:26;42.05;;;30.10;;
32399;SDS011;45045;45.440;9.178;2022-10-20T02:54:52;40.00;;;28.63;;
32399;SDS011;45045;45.440;9.178;2022-10-20T02:57:17;39.67;;;28.65;;
32399;SDS011;45045;45.440;9.178;2022-10-20T02:59:43;39.03;;;28.33;;
32399;SDS011;45045;45.440;9.178;2022-10-20T03:02:09;41.38;;;27.75;;
32399;SDS011;45045;45.440;9.178;2022-10-20T03:04:34;43.40;;;29.17;;
32399;SDS011;45045;45.440;9.178;2022-10-20T03:07:00;62.80;;;44.67;;
32399;SDS011;45045;45.440;9.178;2022-10-20T03:09:25;40.42;;;28.55;;
32399;SDS011;45045;45.440;9.178;2022-10-20T03:11:51;44.42;;;28.48;;
32399;SDS011;45045;45.440;9.178;2022-10-20T03:14:17;42.10;;;28.70;;
32399;SDS011;45045;45.440;9.178;2022-10-20T03:16:42;42.60;;;28.88;;
32399;SDS011;45045;45.440;9.178;2022-10-20T03:19:08;38.78;;;29.30;;
32399;SDS011;45045;45.440;9.178;2022-10-20T03:21:33;41.00;;;28.20;;
32399;SDS011;45045;45.440;9.178;2022-10-20T03:23:59;42.75;;;28.35;;
32399;SDS011;45045;45.440;9.178;2022-10-20T03:26:25;42.60;;;27.48;;
32399;SDS011;45045;45.440;9.178;2022-10-20T03:28:50;43.35;;;27.55;;
32399;SDS011;45045;45.440;9.178;2022-10-20T03:31:16;39.75;;;26.48;;
32399;SDS011;45045;45.440;9.178;2022-10-20T03:33:42;39.17;;;27.42;;
32399;SDS011;45045;45.440;9.178;2022-10-20T03:36:07;39.25;;;27.65;;
32399;SDS011;45045;45.440;9.178;2022-10-20T03:38:33;40.22;;;27.42;;
32399;SDS011;45045;45.440;9.178;2022-10-20T03:40:59;42.03;;;27.38;;
32399;SDS011;45045;45.440;9.178;2022-10-20T03:43:25;40.47;;;27.55;;
32399;SDS011;45045;45.440;9.178;2022-10-20T03:45:59;40.80;;;27.27;;
32399;SDS011;45045;45.440;9.178;2022-10-20T03:48:29;42.15;;;26.92;;
32399;SDS011;45045;45.440;9.178;2022-10-20T03:50:55;36.10;;;26.17;;
32399;SDS011;45045;45.440;9.178;2022-10-20T03:53:21;35.85;;;26.17;;
32399;SDS011;45045;45.440;9.178;2022-10-20T03:55:46;41.92;;;27.38;;
32399;SDS011;45045;45.440;9.178;2022-10-20T03:58:12;40.67;;;28.70;;
32399;SDS011;45045;45.440;9.178;2022-10-20T04:00:37;41.53;;;27.13;;
32399;SDS011;45045;45.440;9.178;2022-10-20T04:03:03;46.17;;;28.15;;
32399;SDS011;45045;45.440;9.178;2022-10-20T04:05:29;40.08;;;27.05;;
32399;SDS011;45045;45.440;9.178;2022-10-20T04:07:54;40.22;;;27.08;;
32399;SDS011;45045;45.440;9.178;2022-10-20T04:10:20;39.80;;;28.17;;
32399;SDS011;45045;45.440;9.178;2022-10-20T04:12:46;55.28;;;30.73;;
32399;SDS011;45045;45.440;9.178;2022-10-20T04:15:11;41.90;;;28.00;;
32399;SDS011;45045;45.440;9.178;2022-10-20T04:17:37;38.90;;;27.95;;
32399;SDS011;45045;45.440;9.178;2022-10-20T04:20:03;39.72;;;27.50;;
32399;SDS011;45045;45.440;9.178;2022-10-20T04:22:30;40.88;;;27.20;;
32399;SDS011;45045;45.440;9.178;2022-10-20T04:24:56;38.47;;;27.00;;
32399;SDS011;45045;45.440;9.178;2022-10-20T04:27:21;42.60;;;28.33;;
32399;SDS011;45045;45.440;9.178;2022-10-20T04:29:47;42.55;;;27.55;;
32399;SDS011;45045;45.440;9.178;2022-10-20T04:32:13;44.75;;;30.20;;
32399;SDS011;45045;45.440;9.178;2022-10-20T04:34:38;42.85;;;28.40;;
32399;SDS011;45045;45.440;9.178;2022-10-20T04:37:04;37.88;;;27.85;;
32399;SDS011;45045;45.440;9.178;2022-10-20T04:39:30;44.85;;;29.20;;
32399;SDS011;45045;45.440;9.178;2022-10-20T04:41:55;42.45;;;27.42;;
32399;SDS011;45045;45.440;9.178;2022-10-20T04:44:21;41.00;;;26.88;;
32399;SDS011;45045;45.440;9.178;2022-10-20T04:46:47;41.92;;;27.00;;
32399;SDS011;45045;45.440;9.178;2022-10-20T04:49:13;40.35;;;26.85;;
32399;SDS011;45045;45.440;9.178;2022-10-20T04:51:39;35.42;;;26.60;;
32399;SDS011;45045;45.440;9.178;2022-10-20T04:54:04;35.80;;;25.33;;
32399;SDS011;45045;45.440;9.178;2022-10-20T04:56:30;38.90;;;26.73;;
32399;SDS011;45045;45.440;9.178;2022-10-20T04:58:56;38.95;;;26.50;;
32399;SDS011;45045;45.440;9.178;2022-10-20T05:01:25;38.33;;;25.77;;
32399;SDS011;45045;45.440;9.178;2022-10-20T05:03:52;39.70;;;27.08;;
32399;SDS011;45045;45.440;9.178;2022-10-20T05:06:19;39.22;;;26.70;;
32399;SDS011;45045;45.440;9.178;2022-10-20T05:08:47;36.88;;;25.88;;
32399;SDS011;45045;45.440;9.178;2022-10-20T05:11:15;40.30;;;26.13;;
32399;SDS011;45045;45.440;9.178;2022-10-20T05:13:43;35.08;;;24.75;;
32399;SDS011;45045;45.440;9.178;2022-10-20T05:16:09;37.58;;;24.63;;
32399;SDS011;45045;45.440;9.178;2022-10-20T05:18:36;40.25;;;26.17;;
32399;SDS011;45045;45.440;9.178;2022-10-20T05:21:12;36.22;;;26.20;;
32399;SDS011;45045;45.440;9.178;2022-10-20T05:23:39;37.80;;;25.52;;
32399;SDS011;45045;45.440;9.178;2022-10-20T05:26:07;38.47;;;26.45;;
32399;SDS011;45045;45.440;9.178;2022-10-20T05:28:34;36.45;;;26.10;;
32399;SDS011;45045;45.440;9.178;2022-10-20T05:31:00;37.28;;;25.67;;
32399;SDS011;45045;45.440;9.178;2022-10-20T05:33:30;36.70;;;25.85;;
32399;SDS011;45045;45.440;9.178;2022-10-20T05:35:57;39.60;;;25.38;;
32399;SDS011;45045;45.440;9.178;2022-10-20T05:38:23;45.97;;;27.88;;
32399;SDS011;45045;45.440;9.178;2022-10-20T05:40:49;39.70;;;27.77;;
32399;SDS011;45045;45.440;9.178;2022-10-20T05:43:14;43.58;;;31.23;;
32399;SDS011;45045;45.440;9.178;2022-10-20T05:45:41;37.72;;;24.92;;
32399;SDS011;45045;45.440;9.178;2022-10-20T05:48:07;39.05;;;25.33;;
32399;SDS011;45045;45.440;9.178;2022-10-20T05:50:32;38.78;;;25.83;;
32399;SDS011;45045;45.440;9.178;2022-10-20T05:52:58;39.55;;;25.45;;
32399;SDS011;45045;45.440;9.178;2022-10-20T05:55:24;36.67;;;25.58;;
32399;SDS011;45045;45.440;9.178;2022-10-20T05:57:50;37.75;;;26.27;;
32399;SDS011;45045;45.440;9.178;2022-10-20T06:00:16;41.60;;;25.77;;
32399;SDS011;45045;45.440;9.178;2022-10-20T06:02:47;40.25;;;27.35;;
32399;SDS011;45045;45.440;9.178;2022-10-20T06:05:13;39.75;;;25.88;;
32399;SDS011;45045;45.440;9.178;2022-10-20T06:07:40;48.75;;;32.22;;
32399;SDS011;45045;45.440;9.178;2022-10-20T06:10:05;43.45;;;28.00;;
32399;SDS011;45045;45.440;9.178;2022-10-20T06:12:31;41.28;;;28.23;;
32399;SDS011;45045;45.440;9.178;2022-10-20T06:14:58;39.17;;;25.83;;
32399;SDS011;45045;45.440;9.178;2022-10-20T06:17:24;43.70;;;26.80;;
32399;SDS011;45045;45.440;9.178;2022-10-20T06:19:50;41.90;;;26.42;;
32399;SDS011;45045;45.440;9.178;2022-10-20T06:22:16;39.75;;;26.80;;
32399;SDS011;45045;45.440;9.178;2022-10-20T06:24:41;39.10;;;25.67;;
32399;SDS011;45045;45.440;9.178;2022-10-20T06:27:07;41.47;;;26.27;;
32399;SDS011;45045;45.440;9.178;2022-10-20T06:29:32;39.55;;;27.35;;
32399;SDS011;45045;45.440;9.178;2022-10-20T06:31:58;43.03;;;28.10;;
32399;SDS011;45045;45.440;9.178;2022-10-20T06:34:24;54.15;;;34.80;;
32399;SDS011;45045;45.440;9.178;2022-10-20T06:36:50;50.95;;;32.72;;
32399;SDS011;45045;45.440;9.178;2022-10-20T06:39:17;46.33;;;28.23;;
32399;SDS011;45045;45.440;9.178;2022-10-20T06:41:47;45.33;;;27.63;;
32399;SDS011;45045;45.440;9.178;2022-10-20T06:44:15;42.47;;;27.25;;
32399;SDS011;45045;45.440;9.178;2022-10-20T06:46:41;44.17;;;28.67;;
32399;SDS011;45045;45.440;9.178;2022-10-20T06:49:08;46.22;;;28.55;;
32399;SDS011;45045;45.440;9.178;2022-10-20T06:51:35;46.67;;;30.75;;
32399;SDS011;45045;45.440;9.178;2022-10-20T06:54:01;39.05;;;26.40;;
32399;SDS011;45045;45.440;9.178;2022-10-20T06:56:28;37.72;;;27.58;;
32399;SDS011;45045;45.440;9.178;2022-10-20T06:58:55;42.50;;;27.85;;
32399;SDS011;45045;45.440;9.178;2022-10-20T07:01:25;42.65;;;27.58;;
32399;SDS011;45045;45.440;9.178;2022-10-20T07:03:57;39.65;;;27.25;;
32399;SDS011;45045;45.440;9.178;2022-10-20T07:06:26;40.50;;;26.27;;
32399;SDS011;45045;45.440;9.178;2022-10-20T07:08:53;43.03;;;27.23;;
32399;SDS011;45045;45.440;9.178;2022-10-20T07:11:21;43.40;;;27.60;;
32399;SDS011;45045;45.440;9.178;2022-10-20T07:13:50;43.20;;;26.88;;
32399;SDS011;45045;45.440;9.178;2022-10-20T07:16:17;40.13;;;27.58;;
32399;SDS011;45045;45.440;9.178;2022-10-20T07:21:14;40.05;;;24.77;;
32399;SDS011;45045;45.440;9.178;2022-10-20T07:23:42;42.10;;;26.08;;
32399;SDS011;45045;45.440;9.178;2022-10-20T07:26:13;54.10;;;41.63;;
32399;SDS011;45045;45.440;9.178;2022-10-20T07:28:42;47.05;;;29.00;;
32399;SDS011;45045;45.440;9.178;2022-10-20T07:31:11;50.10;;;32.20;;
32399;SDS011;45045;45.440;9.178;2022-10-20T07:33:38;43.92;;;26.45;;
32399;SDS011;45045;45.440;9.178;2022-10-20T07:38:58;42.88;;;26.30;;
32399;SDS011;45045;45.440;9.178;2022-10-20T07:41:26;40.20;;;26.15;;
32399;SDS011;45045;45.440;9.178;2022-10-20T07:43:53;43.05;;;25.60;;
32399;SDS011;45045;45.440;9.178;2022-10-20T07:46:19;42.20;;;26.83;;
32399;SDS011;45045;45.440;9.178;2022-10-20T07:48:44;36.15;;;24.25;;
32399;SDS011;45045;45.440;9.178;2022-10-20T07:53:45;39.70;;;24.35;;
32399;SDS011;45045;45.440;9.178;2022-10-20T07:56:13;43.13;;;25.15;;
32399;SDS011;45045;45.440;9.178;2022-10-20T07:58:38;35.42;;;23.55;;
32399;SDS011;45045;45.440;9.178;2022-10-20T08:01:05;31.35;;;21.90;;
32399;SDS011;45045;45.440;9.178;2022-10-20T08:03:31;38.30;;;21.90;;
32399;SDS011;45045;45.440;9.178;2022-10-20T08:05:57;34.70;;;21.05;;
32399;SDS011;45045;45.440;9.178;2022-10-20T08:08:22;34.35;;;22.55;;
32399;SDS011;45045;45.440;9.178;2022-10-20T08:10:48;33.58;;;21.42;;
32399;SDS011;45045;45.440;9.178;2022-10-20T08:13:13;32.58;;;22.40;;
32399;SDS011;45045;45.440;9.178;2022-10-20T08:15:39;35.00;;;21.35;;
32399;SDS011;45045;45.440;9.178;2022-10-20T08:18:04;32.20;;;21.35;;
32399;SDS011;45045;45.440;9.178;2022-10-20T08:20:30;35.88;;;20.50;;
32399;SDS011;45045;45.440;9.178;2022-10-20T08:22:56;28.15;;;19.35;;
32399;SDS011;45045;45.440;9.178;2022-10-20T08:25:22;35.22;;;21.55;;
32399;SDS011;45045;45.440;9.178;2022-10-20T08:27:48;32.28;;;20.73;;
32399;SDS011;45045;45.440;9.178;2022-10-20T08:30:13;31.00;;;21.20;;
32399;SDS011;45045;45.440;9.178;2022-10-20T08:32:39;86.57;;;25.08;;
32399;SDS011;45045;45.440;9.178;2022-10-20T08:35:05;33.35;;;21.33;;
32399;SDS011;45045;45.440;9.178;2022-10-20T08:37:31;30.63;;;20.45;;
32399;SDS011;45045;45.440;9.178;2022-10-20T08:39:57;40.10;;;22.67;;
32399;SDS011;45045;45.440;9.178;2022-10-20T08:42:23;34.70;;;22.08;;
32399;SDS011;45045;45.440;9.178;2022-10-20T08:44:50;31.85;;;21.65;;
32399;SDS011;45045;45.440;9.178;2022-10-20T08:47:22;50.35;;;21.55;;
32399;SDS011;45045;45.440;9.178;2022-10-20T08:49:48;34.25;;;20.52;;
32399;SDS011;45045;45.440;9.178;2022-10-20T08:52:14;36.50;;;21.30;;
32399;SDS011;45045;45.440;9.178;2022-10-20T08:54:45;33.30;;;19.73;;
32399;SDS011;45045;45.440;9.178;2022-10-20T08:57:14;31.38;;;20.48;;
32399;SDS011;45045;45.440;9.178;2022-10-20T08:59:52;33.38;;;20.95;;
32399;SDS011;45045;45.440;9.178;2022-10-20T09:02:19;36.17;;;22.48;;
32399;SDS011;45045;45.440;9.178;2022-10-20T09:07:30;37.35;;;23.02;;
32399;SDS011;45045;45.440;9.178;2022-10-20T09:10:40;43.47;;;26.27;;
32399;SDS011;45045;45.440;9.178;2022-10-20T09:12:53;44.45;;;28.67;;
32399;SDS011;45045;45.440;9.178;2022-10-20T09:15:20;50.65;;;30.80;;
32399;SDS011;45045;45.440;9.178;2022-10-20T09:17:52;46.97;;;31.23;;
32399;SDS011;45045;45.440;9.178;2022-10-20T09:20:24;53.60;;;36.03;;
32399;SDS011;45045;45.440;9.178;2022-10-20T09:22:55;64.60;;;40.22;;
32399;SDS011;45045;45.440;9.178;2022-10-20T09:25:22;58.97;;;39.42;;
32399;SDS011;45045;45.440;9.178;2022-10-20T09:27:50;59.60;;;39.35;;
32399;SDS011;45045;45.440;9.178;2022-10-20T09:30:21;56.83;;;38.40;;
32399;SDS011;45045;45.440;9.178;2022-10-20T09:32:52;57.58;;;38.65;;
32399;SDS011;45045;45.440;9.178;2022-10-20T09:37:51;57.78;;;37.72;;
32399;SDS011;45045;45.440;9.178;2022-10-20T09:40:22;58.95;;;38.05;;
32399;SDS011;45045;45.440;9.178;2022-10-20T09:42:54;61.10;;;40.72;;
32399;SDS011;45045;45.440;9.178;2022-10-20T09:45:29;60.78;;;42.10;;
32399;SDS011;45045;45.440;9.178;2022-10-20T09:48:17;67.78;;;44.25;;
32399;SDS011;45045;45.440;9.178;2022-10-20T09:50:50;67.43;;;46.72;;
32399;SDS011;45045;45.440;9.178;2022-10-20T09:53:21;67.97;;;45.80;;
32399;SDS011;45045;45.440;9.178;2022-10-20T09:55:53;70.18;;;48.05;;
32399;SDS011;45045;45.440;9.178;2022-10-20T10:00:56;72.05;;;46.78;;
32399;SDS011;45045;45.440;9.178;2022-10-20T10:03:25;75.53;;;49.35;;
32399;SDS011;45045;45.440;9.178;2022-10-20T10:05:52;70.57;;;48.45;;
32399;SDS011;45045;45.440;9.178;2022-10-20T10:08:21;73.82;;;49.65;;
32399;SDS011;45045;45.440;9.178;2022-10-20T10:10:58;74.53;;;49.95;;
32399;SDS011;45045;45.440;9.178;2022-10-20T10:13:29;69.90;;;49.60;;
32399;SDS011;45045;45.440;9.178;2022-10-20T10:16:01;74.78;;;51.20;;
32399;SDS011;45045;45.440;9.178;2022-10-20T10:18:32;74.70;;;51.08;;
32399;SDS011;45045;45.440;9.178;2022-10-20T10:21:06;81.15;;;52.58;;
32399;SDS011;45045;45.440;9.178;2022-10-20T10:23:51;74.88;;;49.95;;
32399;SDS011;45045;45.440;9.178;2022-10-20T10:26:31;78.53;;;53.30;;
32399;SDS011;45045;45.440;9.178;2022-10-20T10:29:14;74.20;;;52.40;;
32399;SDS011;45045;45.440;9.178;2022-10-20T10:31:49;81.22;;;54.08;;
32399;SDS011;45045;45.440;9.178;2022-10-20T10:36:53;82.10;;;55.15;;
32399;SDS011;45045;45.440;9.178;2022-10-20T10:39:19;79.68;;;54.85;;
32399;SDS011;45045;45.440;9.178;2022-10-20T10:44:15;76.68;;;52.10;;
32399;SDS011;45045;45.440;9.178;2022-10-20T10:52:23;79.78;;;53.30;;
32399;SDS011;45045;45.440;9.178;2022-10-20T10:58:14;78.47;;;53.67;;
32399;SDS011;45045;45.440;9.178;2022-10-20T11:03:39;82.50;;;55.35;;
32399;SDS011;45045;45.440;9.178;2022-10-20T11:06:20;79.30;;;54.80;;
32399;SDS011;45045;45.440;9.178;2022-10-20T11:09:23;78.95;;;55.05;;
32399;SDS011;45045;45.440;9.178;2022-10-20T11:20:23;70.97;;;49.63;;
32399;SDS011;45045;45.440;9.178;2022-10-20T11:27:42;81.90;;;54.03;;
32399;SDS011;45045;45.440;9.178;2022-10-20T11:38:02;74.68;;;51.53;;
32399;SDS011;45045;45.440;9.178;2022-10-20T11:40:31;78.15;;;52.75;;
32399;SDS011;45045;45.440;9.178;2022-10-20T11:56:39;73.00;;;51.17;;
32399;SDS011;45045;45.440;9.178;2022-10-20T12:08:05;68.93;;;50.40;;
32399;SDS011;45045;45.440;9.178;2022-10-20T12:13:37;68.32;;;47.28;;
32399;SDS011;45045;45.440;9.178;2022-10-20T12:19:24;73.90;;;51.10;;
32399;SDS011;45045;45.440;9.178;2022-10-20T12:27:19;81.30;;;51.53;;
32399;SDS011;45045;45.440;9.178;2022-10-20T12:39:48;61.30;;;42.28;;
32399;SDS011;45045;45.440;9.178;2022-10-20T12:42:22;64.25;;;43.58;;
32399;SDS011;45045;45.440;9.178;2022-10-20T12:44:56;68.47;;;44.00;;
32399;SDS011;45045;45.440;9.178;2022-10-20T12:47:27;62.45;;;43.75;;
32399;SDS011;45045;45.440;9.178;2022-10-20T12:49:58;76.53;;;44.00;;
32399;SDS011;45045;45.440;9.178;2022-10-20T12:52:27;70.43;;;48.40;;
32399;SDS011;45045;45.440;9.178;2022-10-20T12:57:32;60.63;;;44.70;;
32399;SDS011;45045;45.440;9.178;2022-10-20T13:00:05;65.03;;;44.40;;
32399;SDS011;45045;45.440;9.178;2022-10-20T13:02:55;66.57;;;44.30;;
32399;SDS011;45045;45.440;9.178;2022-10-20T13:05:26;65.25;;;44.22;;
32399;SDS011;45045;45.440;9.178;2022-10-20T13:13:41;55.97;;;39.83;;
32399;SDS011;45045;45.440;9.178;2022-10-20T13:15:45;56.47;;;41.13;;
32399;SDS011;45045;45.440;9.178;2022-10-20T13:18:23;58.75;;;40.50;;
32399;SDS011;45045;45.440;9.178;2022-10-20T13:23:53;60.75;;;42.03;;
32399;SDS011;45045;45.440;9.178;2022-10-20T13:29:11;64.10;;;44.38;;
32399;SDS011;45045;45.440;9.178;2022-10-20T13:31:50;62.00;;;44.28;;
32399;SDS011;45045;45.440;9.178;2022-10-20T13:34:35;56.13;;;42.35;;
32399;SDS011;45045;45.440;9.178;2022-10-20T13:40:05;56.47;;;41.60;;
32399;SDS011;45045;45.440;9.178;2022-10-20T13:51:24;57.33;;;42.55;;
32399;SDS011;45045;45.440;9.178;2022-10-20T13:53:57;58.92;;;41.97;;
32399;SDS011;45045;45.440;9.178;2022-10-20T13:56:35;62.17;;;43.78;;
32399;SDS011;45045;45.440;9.178;2022-10-20T13:59:05;53.30;;;38.58;;
32399;SDS011;45045;45.440;9.178;2022-10-20T14:01:45;58.83;;;37.17;;
32399;SDS011;45045;45.440;9.178;2022-10-20T14:04:29;47.95;;;35.92;;
32399;SDS011;45045;45.440;9.178;2022-10-20T14:07:04;50.88;;;35.53;;
32399;SDS011;45045;45.440;9.178;2022-10-20T14:09:41;50.70;;;35.40;;
32399;SDS011;45045;45.440;9.178;2022-10-20T14:12:08;51.15;;;37.25;;
32399;SDS011;45045;45.440;9.178;2022-10-20T14:14:41;54.78;;;36.88;;
32399;SDS011;45045;45.440;9.178;2022-10-20T14:17:14;51.30;;;36.03;;
32399;SDS011;45045;45.440;9.178;2022-10-20T14:19:43;51.25;;;37.85;;
32399;SDS011;45045;45.440;9.178;2022-10-20T14:22:10;48.65;;;37.33;;
32399;SDS011;45045;45.440;9.178;2022-10-20T14:24:42;53.90;;;36.95;;
32399;SDS011;45045;45.440;9.178;2022-10-20T14:27:15;51.00;;;37.42;;
32399;SDS011;45045;45.440;9.178;2022-10-20T14:29:45;51.58;;;37.22;;
32399;SDS011;45045;45.440;9.178;2022-10-20T14:32:17;51.22;;;37.42;;
32399;SDS011;45045;45.440;9.178;2022-10-20T14:37:28;53.45;;;37.35;;
32399;SDS011;45045;45.440;9.178;2022-10-20T14:40:04;53.70;;;37.20;;
32399;SDS011;45045;45.440;9.178;2022-10-20T14:42:42;48.97;;;35.65;;
32399;SDS011;45045;45.440;9.178;2022-10-20T14:45:16;54.58;;;36.40;;
32399;SDS011;45045;45.440;9.178;2022-10-20T14:47:47;50.13;;;36.20;;
32399;SDS011;45045;45.440;9.178;2022-10-20T14:50:21;51.08;;;36.40;;
32399;SDS011;45045;45.440;9.178;2022-10-20T14:53:14;49.35;;;36.17;;
32399;SDS011;45045;45.440;9.178;2022-10-20T14:55:53;47.97;;;35.58;;
32399;SDS011;45045;45.440;9.178;2022-10-20T14:58:27;54.55;;;37.05;;
32399;SDS011;45045;45.440;9.178;2022-10-20T15:01:11;52.60;;;34.88;;
32399;SDS011;45045;45.440;9.178;2022-10-20T15:03:39;47.97;;;34.38;;
32399;SDS011;45045;45.440;9.178;2022-10-20T15:06:07;54.83;;;36.67;;
32399;SDS011;45045;45.440;9.178;2022-10-20T15:08:36;48.42;;;36.67;;
32399;SDS011;45045;45.440;9.178;2022-10-20T15:11:02;46.92;;;35.28;;
32399;SDS011;45045;45.440;9.178;2022-10-20T15:16:29;49.38;;;36.28;;
32399;SDS011;45045;45.440;9.178;2022-10-20T15:19:17;51.55;;;34.92;;
32399;SDS011;45045;45.440;9.178;2022-10-20T15:22:01;52.25;;;36.63;;
32399;SDS011;45045;45.440;9.178;2022-10-20T15:24:34;51.70;;;35.33;;
32399;SDS011;45045;45.440;9.178;2022-10-20T15:27:00;50.90;;;37.13;;
32399;SDS011;45045;45.440;9.178;2022-10-20T15:29:27;47.70;;;36.30;;
32399;SDS011;45045;45.440;9.178;2022-10-20T15:31:53;50.20;;;35.42;;
32399;SDS011;45045;45.440;9.178;2022-10-20T15:34:19;51.95;;;35.08;;
32399;SDS011;45045;45.440;9.178;2022-10-20T15:36:45;51.70;;;34.67;;
32399;SDS011;45045;45.440;9.178;2022-10-20T15:39:11;49.15;;;35.90;;
32399;SDS011;45045;45.440;9.178;2022-10-20T15:41:37;51.22;;;34.75;;
32399;SDS011;45045;45.440;9.178;2022-10-20T15:44:17;82.57;;;37.90;;
32399;SDS011;45045;45.440;9.178;2022-10-20T15:46:46;58.55;;;34.00;;
32399;SDS011;45045;45.440;9.178;2022-10-20T15:49:12;52.83;;;35.58;;
32399;SDS011;45045;45.440;9.178;2022-10-20T15:51:39;49.10;;;34.63;;
32399;SDS011;45045;45.440;9.178;2022-10-20T15:54:09;58.30;;;34.72;;
32399;SDS011;45045;45.440;9.178;2022-10-20T15:56:40;74.25;;;59.08;;
32399;SDS011;45045;45.440;9.178;2022-10-20T15:59:06;52.55;;;35.55;;
32399;SDS011;45045;45.440;9.178;2022-10-20T16:01:31;59.53;;;36.53;;
32399;SDS011;45045;45.440;9.178;2022-10-20T16:03:57;52.78;;;35.88;;
32399;SDS011;45045;45.440;9.178;2022-10-20T16:06:25;55.05;;;35.40;;
32399;SDS011;45045;45.440;9.178;2022-10-20T16:08:50;50.53;;;35.72;;
32399;SDS011;45045;45.440;9.178;2022-10-20T16:11:17;53.95;;;35.67;;
32399;SDS011;45045;45.440;9.178;2022-10-20T16:13:44;54.03;;;36.25;;
32399;SDS011;45045;45.440;9.178;2022-10-20T16:16:14;50.92;;;35.35;;
32399;SDS011;45045;45.440;9.178;2022-10-20T16:18:42;50.50;;;36.17;;
32399;SDS011;45045;45.440;9.178;2022-10-20T16:21:08;54.40;;;36.60;;
32399;SDS011;45045;45.440;9.178;2022-10-20T16:23:34;53.63;;;35.65;;
32399;SDS011;45045;45.440;9.178;2022-10-20T16:26:05;52.50;;;35.05;;
32399;SDS011;45045;45.440;9.178;2022-10-20T16:31:06;47.33;;;34.28;;
32399;SDS011;45045;45.440;9.178;2022-10-20T16:33:33;51.17;;;34.58;;
32399;SDS011;45045;45.440;9.178;2022-10-20T16:36:03;49.30;;;35.97;;
32399;SDS011;45045;45.440;9.178;2022-10-20T16:38:30;49.38;;;35.50;;
32399;SDS011;45045;45.440;9.178;2022-10-20T16:41:02;54.50;;;35.53;;
32399;SDS011;45045;45.440;9.178;2022-10-20T16:43:29;59.58;;;38.88;;
32399;SDS011;45045;45.440;9.178;2022-10-20T16:45:56;47.03;;;34.35;;
32399;SDS011;45045;45.440;9.178;2022-10-20T16:48:22;51.75;;;35.25;;
32399;SDS011;45045;45.440;9.178;2022-10-20T16:50:48;56.40;;;35.78;;
32399;SDS011;45045;45.440;9.178;2022-10-20T16:53:15;50.55;;;37.33;;
32399;SDS011;45045;45.440;9.178;2022-10-20T16:55:49;53.92;;;36.17;;
32399;SDS011;45045;45.440;9.178;2022-10-20T16:58:16;52.88;;;36.83;;
32399;SDS011;45045;45.440;9.178;2022-10-20T17:00:42;52.47;;;37.95;;
32399;SDS011;45045;45.440;9.178;2022-10-20T17:03:07;50.67;;;36.83;;
32399;SDS011;45045;45.440;9.178;2022-10-20T17:05:33;54.25;;;37.53;;